createdAt,value
2023-04-15T00:03:17.142Z,57.75
2023-04-15T00:08:19.880Z,58.28
2023-04-15T00:13:21.875Z,58.36
2023-04-15T00:18:25.517Z,59.28
2023-04-15T00:23:28.192Z,58.79
2023-04-15T00:28:34.214Z,58.62
2023-04-15T00:33:41.116Z,58.93
2023-04-15T00:38:45.978Z,58.91
2023-04-15T00:43:49.072Z,58.78
2023-04-15T00:48:52.298Z,58.54
2023-04-15T00:53:54.483Z,58.29
2023-04-15T00:58:57.594Z,58.49
2023-04-15T01:04:00.593Z,58.48
2023-04-15T01:09:03.571Z,58.27
2023-04-15T01:14:07.656Z,58.27
2023-04-15T01:19:13.772Z,58.72
2023-04-15T01:24:18.524Z,58.82
2023-04-15T01:29:20.871Z,58.89
2023-04-15T01:34:23.577Z,59.09
2023-04-15T01:39:29.292Z,59.44
2023-04-15T01:44:32.389Z,59.25
2023-04-15T01:49:35.209Z,59.67
2023-04-15T01:54:39.031Z,59.46
2023-04-15T01:59:46.262Z,59.43
2023-04-15T02:04:48.466Z,59.31
2023-04-15T02:09:51.965Z,59.73
2023-04-15T02:14:54.394Z,59.77
2023-04-15T02:19:57.971Z,59.74
2023-04-15T02:25:00.569Z,59.61
2023-04-15T02:30:03.805Z,59.68
2023-04-15T02:35:08.073Z,59.82
2023-04-15T02:40:13.904Z,59.96
2023-04-15T02:45:16.527Z,59.91
2023-04-15T02:50:20.256Z,60.01
2023-04-15T02:55:22.822Z,60.30
2023-04-15T03:00:25.615Z,60.06
2023-04-15T03:05:27.723Z,60.01
2023-04-15T03:10:29.967Z,60.27
2023-04-15T03:15:33.554Z,60.41
2023-04-15T03:20:36.805Z,60.21
2023-04-15T03:25:39.105Z,60.24
2023-04-15T03:30:47.079Z,60.07
2023-04-15T03:35:49.471Z,60.14
2023-04-15T03:40:51.793Z,60.38
2023-04-15T03:45:54.211Z,60.51
2023-04-15T03:50:57.073Z,60.43
2023-04-15T03:55:59.236Z,60.56
2023-04-15T04:01:01.734Z,60.53
2023-04-15T04:06:03.875Z,60.34
2023-04-15T04:11:06.844Z,60.62
2023-04-15T04:16:09.132Z,60.50
2023-04-15T04:21:13.986Z,60.71
2023-04-15T04:26:17.810Z,60.45
2023-04-15T04:31:20.229Z,60.45
2023-04-15T04:36:22.782Z,60.33
2023-04-15T04:41:24.913Z,60.66
2023-04-15T04:46:27.700Z,60.05
2023-04-15T04:51:29.950Z,59.89
2023-04-15T04:56:34.527Z,59.85
2023-04-15T05:01:39.285Z,59.83
2023-04-15T05:06:41.991Z,59.44
2023-04-15T05:11:44.646Z,59.41
2023-04-15T05:16:46.809Z,59.63
2023-04-15T05:21:50.754Z,59.62
2023-04-15T05:26:53.050Z,59.57
2023-04-15T05:31:55.355Z,59.37
2023-04-15T05:36:57.391Z,59.21
2023-04-15T05:42:00.234Z,59.29
2023-04-15T05:47:03.821Z,59.38
2023-04-15T05:52:08.486Z,59.00
2023-04-15T05:57:13.592Z,58.34
2023-04-15T06:02:16.728Z,57.37
2023-04-15T06:07:19.015Z,56.65
2023-04-15T06:12:21.449Z,56.40
2023-04-15T06:17:23.875Z,56.34
2023-04-15T06:22:26.050Z,56.69
2023-04-15T06:27:28.368Z,56.53
2023-04-15T06:32:32.298Z,56.73
2023-04-15T06:37:37.054Z,56.91
2023-04-15T06:42:39.190Z,55.91
2023-04-15T06:47:42.103Z,54.91
2023-04-15T06:52:46.717Z,55.19
2023-04-15T06:57:48.955Z,55.05
2023-04-15T07:02:51.549Z,54.77
2023-04-15T07:07:57.494Z,54.69
2023-04-15T07:12:59.580Z,55.23
2023-04-15T07:18:02.049Z,55.17
2023-04-15T07:23:04.478Z,54.89
2023-04-15T07:28:06.575Z,53.99
2023-04-15T07:33:08.580Z,53.74
2023-04-15T07:38:13.218Z,52.97
2023-04-15T07:43:16.018Z,52.81
2023-04-15T07:48:18.209Z,52.65
2023-04-15T07:53:21.026Z,51.47
2023-04-15T07:58:23.400Z,51.50
2023-04-15T08:03:26.498Z,51.07
2023-04-15T08:08:31.609Z,49.90
2023-04-15T08:13:35.846Z,49.93
2023-04-15T08:18:38.050Z,49.96
2023-04-15T08:23:40.835Z,48.97
2023-04-15T08:28:44.428Z,47.58
2023-04-15T08:33:47.822Z,46.94
2023-04-15T08:38:50.201Z,47.75
2023-04-15T08:43:55.772Z,45.43
2023-04-15T08:48:58.870Z,44.20
2023-04-15T08:54:02.748Z,42.00
2023-04-15T08:59:05.699Z,39.51
2023-04-15T09:04:08.722Z,38.72
2023-04-15T09:09:20.383Z,35.41
2023-04-15T09:14:23.348Z,33.79
2023-04-15T09:19:26.038Z,33.20
2023-04-15T09:24:34.626Z,32.43
2023-04-15T09:29:37.589Z,32.22
2023-04-15T09:34:40.049Z,31.22
2023-04-15T09:39:50.483Z,30.62
2023-04-15T09:44:56.958Z,30.14
2023-04-15T09:50:02.763Z,28.58
2023-04-15T09:55:11.184Z,29.42
2023-04-15T10:00:16.183Z,29.96
2023-04-15T10:05:20.255Z,29.81
2023-04-15T10:10:25.577Z,28.64
2023-04-15T10:15:31.559Z,28.55
2023-04-15T10:20:34.716Z,28.02
2023-04-15T10:25:37.944Z,28.28
2023-04-15T10:30:40.617Z,27.11
2023-04-15T10:35:43.430Z,27.51
2023-04-15T10:40:46.024Z,26.41
2023-04-15T10:45:51.793Z,26.70
2023-04-15T10:50:58.058Z,27.16
2023-04-15T10:56:00.248Z,26.70
2023-04-15T11:01:05.303Z,27.57
2023-04-15T11:06:08.021Z,27.11
2023-04-15T11:11:14.232Z,25.45
2023-04-15T11:16:16.788Z,25.61
2023-04-15T11:21:18.760Z,26.05
2023-04-15T11:26:27.187Z,25.42
2023-04-15T11:31:29.677Z,25.51
2023-04-15T11:36:32.424Z,25.81
2023-04-15T11:41:36.514Z,24.86
2023-04-15T11:46:40.235Z,25.53
2023-04-15T11:51:43.534Z,26.10
2023-04-15T11:56:51.510Z,26.84
2023-04-15T12:01:54.429Z,26.64
2023-04-15T12:07:06.370Z,27.06
2023-04-15T12:12:08.631Z,28.60
2023-04-15T12:17:11.887Z,29.03
2023-04-15T12:22:16.528Z,28.93
2023-04-15T12:27:21.860Z,29.75
2023-04-15T12:32:25.599Z,29.54
2023-04-15T12:37:27.871Z,28.36
2023-04-15T12:42:30.272Z,28.34
2023-04-15T12:47:32.744Z,28.74
2023-04-15T12:52:35.017Z,29.15
2023-04-15T12:57:38.691Z,30.20
2023-04-15T13:02:41.318Z,30.82
2023-04-15T13:07:44.301Z,30.80
2023-04-15T13:12:47.579Z,29.59
2023-04-15T13:17:50.794Z,31.46
2023-04-15T13:22:53.524Z,30.82
2023-04-15T13:27:56.065Z,29.79
2023-04-15T13:32:59.350Z,29.23
2023-04-15T13:38:01.722Z,29.91
2023-04-15T13:43:04.366Z,30.20
2023-04-15T13:48:06.577Z,30.11
2023-04-15T13:53:08.651Z,29.71
2023-04-15T13:58:11.501Z,29.80
2023-04-15T14:03:13.676Z,29.38
2023-04-15T14:08:15.872Z,30.15
2023-04-15T14:13:19.683Z,29.63
2023-04-15T14:18:21.958Z,29.89
2023-04-15T14:23:24.248Z,29.51
2023-04-15T14:28:26.260Z,29.42
2023-04-15T14:33:28.364Z,29.75
2023-04-15T14:38:30.769Z,29.52
2023-04-15T14:43:33.470Z,29.63
2023-04-15T14:48:35.881Z,29.32
2023-04-15T14:53:38.246Z,29.31
2023-04-15T14:58:40.500Z,32.92
2023-04-15T15:03:44.172Z,29.71
2023-04-15T15:08:51.948Z,29.53
2023-04-15T15:13:55.400Z,29.75
2023-04-15T15:18:57.856Z,32.54
2023-04-15T15:24:05.813Z,33.18
2023-04-15T15:29:08.326Z,33.55
2023-04-15T15:34:11.066Z,32.91
2023-04-15T15:39:18.008Z,33.74
2023-04-15T15:44:20.207Z,32.94
2023-04-15T15:49:26.018Z,33.64
2023-04-15T15:54:28.167Z,34.61
2023-04-15T15:59:30.644Z,33.63
2023-04-15T16:04:33.032Z,33.55
2023-04-15T16:09:35.606Z,33.03
2023-04-15T16:14:38.556Z,34.00
2023-04-15T16:19:41.206Z,34.30
2023-04-15T16:25:08.822Z,32.81
2023-04-15T16:30:11.905Z,33.11
2023-04-15T16:35:17.002Z,33.81
2023-04-15T16:40:19.636Z,32.80
2023-04-15T16:45:27.060Z,33.77
2023-04-15T16:50:32.296Z,34.03
2023-04-15T16:55:34.601Z,34.02
2023-04-15T17:00:37.293Z,34.65
2023-04-15T17:05:39.810Z,35.35
2023-04-15T17:10:41.927Z,33.83
2023-04-15T17:15:44.267Z,34.35
2023-04-15T17:20:50.958Z,33.36
2023-04-15T17:25:54.398Z,33.43
2023-04-15T17:30:57.310Z,34.15
2023-04-15T17:35:59.507Z,33.51
2023-04-15T17:41:02.810Z,33.52
2023-04-15T17:46:07.482Z,33.72
2023-04-15T17:51:09.876Z,33.95
2023-04-15T17:56:13.793Z,34.49
2023-04-15T18:01:18.904Z,35.10
2023-04-15T18:06:23.489Z,34.43
2023-04-15T18:11:25.877Z,34.35
2023-04-15T18:16:28.402Z,35.16
2023-04-15T18:21:32.133Z,35.68
2023-04-15T18:26:37.754Z,35.88
2023-04-15T18:31:43.972Z,36.48
2023-04-15T18:36:46.951Z,36.43
2023-04-15T18:41:50.778Z,36.74
2023-04-15T18:46:53.699Z,36.70
2023-04-15T18:51:56.076Z,36.91
2023-04-15T18:56:58.294Z,37.13
2023-04-15T19:02:01.358Z,38.09
2023-04-15T19:07:03.753Z,38.03
2023-04-15T19:12:06.350Z,37.60
2023-04-15T19:17:08.503Z,37.74
2023-04-15T19:22:10.696Z,37.74
2023-04-15T19:27:19.996Z,37.63
2023-04-15T19:32:22.270Z,38.21
2023-04-15T19:37:24.609Z,38.82
2023-04-15T19:42:27.015Z,38.96
2023-04-15T19:47:29.052Z,39.46
2023-04-15T19:52:31.806Z,39.88
2023-04-15T19:57:35.023Z,39.52
2023-04-15T20:02:37.320Z,39.41
2023-04-15T20:07:42.850Z,39.60
2023-04-15T20:12:49.894Z,40.06
2023-04-15T20:17:55.051Z,40.45
2023-04-15T20:22:57.429Z,40.17
2023-04-15T20:28:00.998Z,40.39
2023-04-15T20:33:05.476Z,40.92
2023-04-15T20:38:08.244Z,41.15
2023-04-15T20:43:10.836Z,41.37
2023-04-15T20:48:14.304Z,41.71
2023-04-15T20:53:17.761Z,42.49
2023-04-15T20:58:20.152Z,43.23
2023-04-15T21:03:22.694Z,43.36
2023-04-15T21:08:32.344Z,43.98
2023-04-15T21:13:43.679Z,44.50
2023-04-15T21:18:48.616Z,44.74
2023-04-15T21:23:51.389Z,44.32
2023-04-15T21:28:57.589Z,44.33
2023-04-15T21:33:59.768Z,44.31
2023-04-15T21:39:01.845Z,44.82
2023-04-15T21:44:04.404Z,44.85
2023-04-15T21:49:07.192Z,44.84
2023-04-15T21:54:09.968Z,45.38
2023-04-15T21:59:12.297Z,45.31
2023-04-15T22:04:14.535Z,45.25
2023-04-15T22:09:16.988Z,45.46
2023-04-15T22:14:25.300Z,45.64
2023-04-15T22:19:27.529Z,45.92
2023-04-15T22:24:39.427Z,46.06
2023-04-15T22:29:42.793Z,46.44
2023-04-15T22:34:45.087Z,46.21
2023-04-15T22:39:47.854Z,46.09
2023-04-15T22:44:50.881Z,46.00
2023-04-15T22:49:55.805Z,45.93
2023-04-15T22:54:58.440Z,45.78
2023-04-15T23:00:03.137Z,46.10
2023-04-15T23:05:12.470Z,46.08
2023-04-15T23:10:16.259Z,46.25
2023-04-15T23:15:20.793Z,46.20
2023-04-15T23:20:25.761Z,46.29
2023-04-15T23:25:28.168Z,46.82
2023-04-15T23:30:32.292Z,47.31
2023-04-15T23:35:34.907Z,47.42
2023-04-15T23:40:37.054Z,47.26
2023-04-15T23:45:40.874Z,47.63
2023-04-15T23:50:43.401Z,48.15
2023-04-15T23:55:49.123Z,47.85
